Time;durP1;ratioP1;P1;durP2;ratioP2;P2;SDS_P1;SDS_P2;PMS_P1;PMS_P2;Temp;Humidity;BMP_temperature;BMP_pressure;BME280_temperature;BME280_humidity;BME280_pressure;Samples;Min_cycle;Max_cycle;Signal;HPM_P1;HPM_P2
2022/06/05 00:00:12;;;;;;;5.37;4.90;;;19.10;99.90;;;;;;5017536;28;20476;-70
2022/06/05 00:02:50;;;;;;;8.10;5.13;;;18.90;99.90;;;;;;5019299;28;21381;-69
2022/06/05 00:05:24;;;;;;;5.77;5.20;;;18.90;99.90;;;;;;5021153;28;20484;-69
2022/06/05 00:08:01;;;;;;;5.40;4.27;;;18.90;99.90;;;;;;5020622;28;20464;-70
2022/06/05 00:10:34;;;;;;;5.07;4.60;;;18.80;99.90;;;;;;5015051;28;21367;-70
2022/06/05 00:13:11;;;;;;;6.10;5.50;;;18.70;99.90;;;;;;5023809;28;20490;-70
2022/06/05 00:15:38;;;;;;;6.33;5.73;;;18.70;99.90;;;;;;5018799;28;20869;-71
2022/06/05 00:18:05;;;;;;;5.40;4.90;;;18.80;99.90;;;;;;5008960;28;20446;-70
2022/06/05 00:20:33;;;;;;;5.63;5.07;;;18.80;99.90;;;;;;5018364;28;20457;-69
2022/06/05 00:23:00;;;;;;;8.30;4.87;;;18.80;99.90;;;;;;5022027;28;20480;-69
2022/06/05 00:25:37;;;;;;;7.00;6.30;;;18.60;99.90;;;;;;5016201;28;21071;-69
2022/06/05 00:28:11;;;;;;;6.60;5.63;;;18.60;99.90;;;;;;5022473;28;20475;-70
2022/06/05 00:30:47;;;;;;;6.90;4.70;;;18.50;99.90;;;;;;5016823;28;20463;-69
2022/06/05 00:33:18;;;;;;;6.10;5.03;;;18.60;99.90;;;;;;5017172;28;20484;-69
2022/06/05 00:35:53;;;;;;;5.70;4.80;;;18.60;99.90;;;;;;5017600;28;20853;-70
2022/06/05 00:38:26;;;;;;;5.10;4.60;;;18.50;99.90;;;;;;5012488;28;20989;-69
2022/06/05 00:41:12;;;;;;;5.27;4.77;;;18.50;99.90;;;;;;5019126;28;20463;-69
2022/06/05 00:43:39;;;;;;;9.33;6.10;;;18.40;99.90;;;;;;5022032;28;20438;-70
2022/06/05 00:46:06;;;;;;;6.53;5.83;;;18.40;99.90;;;;;;5013527;28;20494;-70
2022/06/05 00:48:33;;;;;;;5.70;5.00;;;18.30;99.90;;;;;;5020555;28;20464;-70
2022/06/05 00:51:01;;;;;;;6.90;6.10;;;18.20;99.90;;;;;;5019824;28;20463;-70
2022/06/05 00:53:28;;;;;;;9.03;6.93;;;18.10;99.90;;;;;;5016930;28;20484;-70
2022/06/05 00:55:55;;;;;;;7.13;5.97;;;18.10;99.90;;;;;;5019038;28;21050;-70
2022/06/05 00:58:22;;;;;;;7.07;5.20;;;18.00;99.90;;;;;;5013961;28;20457;-70
2022/06/05 01:00:52;;;;;;;7.33;5.33;;;17.90;99.90;;;;;;5019273;28;20835;-70
2022/06/05 01:03:20;;;;;;;8.97;5.10;;;17.90;99.90;;;;;;5013644;28;20485;-70
2022/06/05 01:05:47;;;;;;;6.10;5.50;;;17.80;99.90;;;;;;5014848;28;21794;-70
2022/06/05 01:08:16;;;;;;;7.60;6.80;;;17.70;99.90;;;;;;5021137;28;20437;-69
2022/06/05 01:10:52;;;;;;;7.40;6.23;;;17.70;99.90;;;;;;5017164;28;20460;-69
2022/06/05 01:13:35;;;;;;;10.53;5.83;;;17.70;99.90;;;;;;5017493;28;20477;-70
2022/06/05 01:16:17;;;;;;;7.80;5.80;;;17.70;99.90;;;;;;5024112;28;20460;-70
2022/06/05 01:18:55;;;;;;;6.60;5.90;;;17.70;99.90;;;;;;5017588;28;20464;-70
2022/06/05 01:21:42;;;;;;;7.80;5.37;;;17.60;99.90;;;;;;5017062;28;20461;-70
2022/06/05 01:24:37;;;;;;;7.90;5.43;;;17.50;99.90;;;;;;5023510;28;20851;-70
2022/06/05 01:27:10;;;;;;;5.93;5.00;;;17.50;99.90;;;;;;5026310;28;20483;-70
2022/06/05 01:29:41;;;;;;;8.07;5.43;;;17.50;99.90;;;;;;5023622;28;20514;-70
2022/06/05 01:32:12;;;;;;;7.50;6.40;;;17.30;99.90;;;;;;5028172;28;21117;-70
2022/06/05 01:34:44;;;;;;;18.33;6.20;;;17.30;99.90;;;;;;5024329;28;20452;-70
2022/06/05 01:37:15;;;;;;;7.23;6.20;;;17.30;99.90;;;;;;5025950;28;20457;-70
2022/06/05 01:39:48;;;;;;;7.30;6.23;;;17.40;99.90;;;;;;5022343;28;20468;-71
2022/06/05 01:42:21;;;;;;;8.03;5.70;;;17.40;99.90;;;;;;5021840;28;20583;-70
2022/06/05 01:44:50;;;;;;;6.93;5.70;;;17.40;99.90;;;;;;5021258;28;20461;-71
2022/06/05 01:47:22;;;;;;;8.70;6.73;;;17.40;99.90;;;;;;5024099;28;20868;-70
2022/06/05 01:49:55;;;;;;;5.63;5.07;;;17.50;99.90;;;;;;5019487;28;20468;-70
2022/06/05 01:52:27;;;;;;;6.40;5.77;;;17.40;99.90;;;;;;5022573;28;21448;-71
2022/06/05 01:55:02;;;;;;;5.30;4.80;;;17.30;99.90;;;;;;5023167;28;20445;-70
2022/06/05 01:57:31;;;;;;;6.77;5.20;;;17.20;99.90;;;;;;5021401;28;20456;-70
2022/06/05 02:00:05;;;;;;;7.00;5.17;;;17.20;99.90;;;;;;5025343;28;20459;-70
2022/06/05 02:02:38;;;;;;;8.20;5.40;;;17.10;99.90;;;;;;5015648;28;20480;-71
2022/06/05 02:05:11;;;;;;;7.60;5.80;;;17.10;99.90;;;;;;5021374;28;21092;-70
2022/06/05 02:07:43;;;;;;;7.40;5.60;;;17.00;99.90;;;;;;5024329;28;20483;-70
2022/06/05 02:10:19;;;;;;;7.90;5.40;;;17.00;99.90;;;;;;5028767;28;20426;-70
2022/06/05 02:12:48;;;;;;;5.97;5.47;;;17.00;99.90;;;;;;5020739;28;20476;-70
2022/06/05 02:15:15;;;;;;;8.53;6.03;;;16.90;99.90;;;;;;5025680;28;20456;-71
2022/06/05 02:17:42;;;;;;;6.40;4.67;;;16.90;99.90;;;;;;5022189;28;20840;-70
2022/06/05 02:20:10;;;;;;;8.53;6.17;;;17.00;99.90;;;;;;5019293;28;20487;-70
2022/06/05 02:22:39;;;;;;;7.40;6.03;;;17.00;99.90;;;;;;5011096;28;20483;-69
2022/06/05 02:25:08;;;;;;;7.97;7.17;;;17.00;99.90;;;;;;5016031;28;20465;-69
2022/06/05 02:27:35;;;;;;;8.77;6.40;;;17.00;99.90;;;;;;5021210;28;20480;-70
2022/06/05 02:30:07;;;;;;;11.57;6.70;;;17.00;99.90;;;;;;5017085;28;20468;-70
2022/06/05 02:32:45;;;;;;;6.53;5.87;;;17.00;99.90;;;;;;5018941;28;20473;-70
2022/06/05 02:35:23;;;;;;;7.53;5.80;;;16.90;99.90;;;;;;5019182;28;20429;-70
2022/06/05 02:38:05;;;;;;;14.67;6.43;;;16.80;99.90;;;;;;5026609;28;20437;-73
2022/06/05 02:40:44;;;;;;;7.10;6.10;;;16.70;99.90;;;;;;5018193;28;20426;-70
2022/06/05 02:43:16;;;;;;;6.67;5.70;;;16.70;99.90;;;;;;5027186;28;21360;-71
2022/06/05 02:45:54;;;;;;;7.20;6.50;;;16.80;99.90;;;;;;5019461;28;20438;-71
2022/06/05 02:48:27;;;;;;;7.63;5.63;;;16.80;99.90;;;;;;5023397;28;20442;-71
2022/06/05 02:51:01;;;;;;;8.70;7.13;;;16.80;99.90;;;;;;5025297;28;20475;-71
2022/06/05 02:53:28;;;;;;;7.63;5.63;;;16.70;99.90;;;;;;5017321;28;20515;-71
2022/06/05 02:55:55;;;;;;;13.10;6.60;;;16.60;99.90;;;;;;5019629;28;20519;-71
2022/06/05 02:58:22;;;;;;;9.83;7.23;;;16.70;99.90;;;;;;5014959;28;20464;-71
2022/06/05 03:03:30;;;;;;;6.40;5.30;;;16.60;99.90;;;;;;5015502;28;21210;-71
2022/06/05 03:06:01;;;;;;;10.00;5.70;;;16.60;99.90;;;;;;5019370;28;20465;-72
2022/06/05 03:08:28;;;;;;;8.27;6.30;;;16.50;99.90;;;;;;5019833;28;20438;-72
2022/06/05 03:10:55;;;;;;;9.87;7.03;;;16.50;99.90;;;;;;5020211;28;20556;-70
2022/06/05 03:13:22;;;;;;;7.50;6.77;;;16.50;99.90;;;;;;5019544;28;20483;-71
2022/06/05 03:15:51;;;;;;;16.23;5.90;;;16.50;99.90;;;;;;5015890;28;20434;-71
2022/06/05 03:18:17;;;;;;;8.23;5.70;;;16.50;99.90;;;;;;5020082;28;20430;-71
2022/06/05 03:20:44;;;;;;;8.30;6.57;;;16.50;99.90;;;;;;5015045;28;20460;-71
2022/06/05 03:23:12;;;;;;;14.30;5.40;;;16.60;99.90;;;;;;5019877;28;20454;-70
2022/06/05 03:25:40;;;;;;;10.03;6.53;;;16.40;99.90;;;;;;5020881;28;20507;-71
2022/06/05 03:28:08;;;;;;;7.47;6.17;;;16.40;99.90;;;;;;5022173;28;20588;-71
2022/06/05 03:30:38;;;;;;;10.97;7.13;;;16.40;99.90;;;;;;5015608;28;20468;-70
2022/06/05 03:33:07;;;;;;;10.43;5.90;;;16.50;99.90;;;;;;5020391;28;20848;-70
2022/06/05 03:35:36;;;;;;;8.80;6.40;;;16.50;99.90;;;;;;5021452;28;20822;-71
2022/06/05 03:38:05;;;;;;;7.83;6.00;;;16.40;99.90;;;;;;5022658;28;20488;-70
2022/06/05 03:40:32;;;;;;;8.10;7.23;;;16.50;99.90;;;;;;5021837;28;20430;-71
2022/06/05 03:42:59;;;;;;;7.10;6.23;;;16.50;99.90;;;;;;5058514;22;20493;-73
2022/06/05 03:45:26;;;;;;;6.13;5.33;;;16.50;99.90;;;;;;5078210;28;20462;-72
2022/06/05 03:47:53;;;;;;;6.87;5.53;;;16.60;99.90;;;;;;5073742;28;20493;-72
2022/06/05 03:50:22;;;;;;;8.33;6.47;;;16.70;99.90;;;;;;5076166;28;21073;-71
2022/06/05 03:52:49;;;;;;;7.97;5.53;;;16.60;99.90;;;;;;5071364;28;20477;-71
2022/06/05 03:55:18;;;;;;;11.40;6.87;;;16.70;99.90;;;;;;5075553;28;20436;-73
2022/06/05 03:57:45;;;;;;;7.47;6.17;;;16.70;99.90;;;;;;5072987;28;20470;-72
2022/06/05 04:00:14;;;;;;;10.23;7.63;;;16.80;99.90;;;;;;5071515;28;20429;-73
2022/06/05 04:02:41;;;;;;;9.90;6.37;;;16.80;99.90;;;;;;5071217;28;20470;-72
2022/06/05 04:05:10;;;;;;;7.70;5.93;;;16.80;99.90;;;;;;5073742;28;20535;-72
2022/06/05 04:07:38;;;;;;;8.00;6.03;;;16.80;99.90;;;;;;5070560;28;21022;-72
2022/06/05 04:10:05;;;;;;;8.30;6.60;;;16.80;99.90;;;;;;5080837;28;20473;-72
2022/06/05 04:12:32;;;;;;;7.63;6.17;;;16.70;99.90;;;;;;5076604;28;20478;-72
2022/06/05 04:15:00;;;;;;;11.73;5.93;;;16.70;99.90;;;;;;5076312;28;21294;-71
2022/06/05 04:17:27;;;;;;;7.23;5.30;;;16.80;99.90;;;;;;5074838;28;20446;-72
2022/06/05 04:19:54;;;;;;;6.97;5.10;;;16.70;99.90;;;;;;5069591;28;21273;-72
2022/06/05 04:22:21;;;;;;;8.70;5.60;;;16.60;99.90;;;;;;5070209;28;20465;-71
2022/06/05 04:24:49;;;;;;;4.93;4.27;;;16.50;99.90;;;;;;5081714;28;20532;-73
2022/06/05 04:27:16;;;;;;;5.70;4.60;;;16.50;99.90;;;;;;5072128;28;20486;-72
2022/06/05 04:29:43;;;;;;;5.20;4.67;;;16.50;99.90;;;;;;5072520;28;20490;-72
2022/06/05 04:32:10;;;;;;;6.50;5.70;;;16.50;99.90;;;;;;5063955;28;20452;-73
2022/06/05 04:34:37;;;;;;;7.03;6.30;;;16.60;99.90;;;;;;5079849;28;20459;-73
2022/06/05 04:37:04;;;;;;;6.67;5.80;;;16.60;99.90;;;;;;5077837;28;20487;-72
2022/06/05 04:39:31;;;;;;;7.50;6.20;;;16.70;99.90;;;;;;5080142;28;20497;-71
2022/06/05 04:41:59;;;;;;;5.33;4.80;;;16.70;99.90;;;;;;5076295;28;20576;-71
2022/06/05 04:44:26;;;;;;;7.67;5.57;;;16.70;99.90;;;;;;5081401;28;21081;-72
2022/06/05 04:46:53;;;;;;;6.50;5.80;;;16.80;99.90;;;;;;5083916;28;20454;-72
2022/06/05 04:49:20;;;;;;;7.53;5.30;;;16.80;99.90;;;;;;5076413;28;20846;-72
2022/06/05 04:51:47;;;;;;;5.73;4.50;;;16.80;99.90;;;;;;5088153;28;20490;-72
2022/06/05 04:54:17;;;;;;;6.33;4.67;;;16.80;99.90;;;;;;5076935;28;21289;-72
2022/06/05 04:56:44;;;;;;;5.93;5.20;;;16.80;99.90;;;;;;5077025;28;20466;-73
2022/06/05 04:59:13;;;;;;;6.90;5.60;;;16.80;99.90;;;;;;5078424;28;20457;-72
2022/06/05 05:01:40;;;;;;;7.53;6.83;;;16.80;99.90;;;;;;5082272;28;20485;-72
2022/06/05 05:04:10;;;;;;;6.27;5.10;;;16.80;99.90;;;;;;5076384;28;20863;-72
2022/06/05 05:06:39;;;;;;;7.40;3.97;;;16.90;99.90;;;;;;5081835;28;20626;-72
2022/06/05 05:09:06;;;;;;;4.47;3.93;;;16.90;99.90;;;;;;5081319;28;21220;-71
2022/06/05 05:11:34;;;;;;;4.20;3.73;;;17.00;99.90;;;;;;5083847;28;20458;-72
2022/06/05 05:14:01;;;;;;;6.80;5.20;;;16.90;99.90;;;;;;5080310;28;20457;-70
2022/06/05 05:16:31;;;;;;;6.10;5.50;;;17.00;99.90;;;;;;5082005;28;20450;-72
2022/06/05 05:18:58;;;;;;;5.03;3.40;;;17.00;99.90;;;;;;5085950;28;20520;-72
2022/06/05 05:21:26;;;;;;;7.60;4.50;;;17.00;99.90;;;;;;5086456;28;20842;-71
2022/06/05 05:23:54;;;;;;;6.53;4.40;;;17.00;99.90;;;;;;5084872;28;21161;-71
2022/06/05 05:26:23;;;;;;;4.33;3.93;;;17.00;99.90;;;;;;5083518;28;20460;-71
2022/06/05 05:28:51;;;;;;;5.13;4.63;;;17.10;99.90;;;;;;5084842;28;20761;-72
2022/06/05 05:31:20;;;;;;;10.30;5.30;;;17.10;99.90;;;;;;5079039;28;20458;-71
2022/06/05 05:33:50;;;;;;;5.50;4.87;;;17.20;99.90;;;;;;5085889;28;20458;-71
2022/06/05 05:36:18;;;;;;;10.70;6.50;;;17.20;99.90;;;;;;5088159;28;20453;-70
2022/06/05 05:44:13;;;;;;;4.37;3.60;;;17.30;99.90;;;;;;5084209;28;20498;-72
2022/06/05 05:46:41;;;;;;;5.80;4.83;;;17.30;99.90;;;;;;5082719;28;21012;-71
2022/06/05 05:49:10;;;;;;;5.83;4.90;;;17.30;99.90;;;;;;5089537;28;20458;-71
2022/06/05 05:51:37;;;;;;;6.03;4.83;;;17.40;99.90;;;;;;5089956;28;20450;-73
2022/06/05 05:54:05;;;;;;;5.10;4.57;;;17.40;99.90;;;;;;5083445;28;20469;-71
2022/06/05 05:56:32;;;;;;;6.57;5.23;;;17.50;99.90;;;;;;5082648;28;20454;-71
2022/06/05 05:58:59;;;;;;;6.80;4.90;;;17.50;99.90;;;;;;5083854;28;20861;-72
2022/06/05 06:01:26;;;;;;;5.60;5.10;;;17.50;99.90;;;;;;5084704;28;20453;-72
2022/06/05 06:03:53;;;;;;;6.10;4.73;;;17.50;99.90;;;;;;5090322;28;20943;-71
2022/06/05 06:06:25;;;;;;;6.77;5.50;;;17.50;99.90;;;;;;5088271;28;20463;-71
2022/06/05 06:08:52;;;;;;;8.90;5.43;;;17.60;99.90;;;;;;5079873;28;20903;-71
2022/06/05 06:11:19;;;;;;;5.70;5.20;;;17.60;99.90;;;;;;5085816;28;20507;-72
2022/06/05 06:13:46;;;;;;;5.37;4.83;;;17.70;99.90;;;;;;5085057;28;20468;-71
2022/06/05 06:16:13;;;;;;;6.27;4.47;;;17.80;99.90;;;;;;5088712;28;20468;-72
2022/06/05 06:18:40;;;;;;;5.40;4.83;;;17.80;99.90;;;;;;5088810;28;20923;-71
2022/06/05 06:21:07;;;;;;;5.20;4.80;;;17.80;99.90;;;;;;5086371;28;20476;-71
2022/06/05 06:23:35;;;;;;;5.97;5.10;;;17.90;99.90;;;;;;5082687;28;20553;-70
2022/06/05 06:26:05;;;;;;;10.07;5.33;;;18.00;99.90;;;;;;5081789;28;20460;-71
2022/06/05 06:28:32;;;;;;;4.83;3.70;;;18.00;99.90;;;;;;5085890;28;20486;-73
2022/06/05 06:30:59;;;;;;;6.70;5.10;;;17.90;99.90;;;;;;5079043;28;20468;-72
2022/06/05 06:33:26;;;;;;;5.17;4.67;;;17.90;99.90;;;;;;5068127;28;20456;-72
2022/06/05 06:35:53;;;;;;;5.20;3.90;;;18.00;99.90;;;;;;5065145;28;21051;-69
2022/06/05 06:38:20;;;;;;;6.47;5.03;;;18.00;99.90;;;;;;5077870;28;20453;-71
2022/06/05 06:40:48;;;;;;;5.20;4.53;;;18.00;99.90;;;;;;5078283;28;20857;-72
2022/06/05 06:43:15;;;;;;;6.43;5.27;;;18.10;99.90;;;;;;5076894;28;20505;-72
2022/06/05 06:45:42;;;;;;;5.47;4.83;;;18.20;99.90;;;;;;5070832;28;20451;-71
2022/06/05 06:48:09;;;;;;;5.80;5.20;;;18.30;99.90;;;;;;5075296;28;20477;-70
2022/06/05 06:50:37;;;;;;;4.77;4.37;;;18.40;99.90;;;;;;5075221;28;20444;-71
2022/06/05 06:53:04;;;;;;;6.60;5.90;;;18.50;99.90;;;;;;5080608;28;20482;-71
2022/06/05 06:55:32;;;;;;;5.87;5.27;;;18.70;99.90;;;;;;5073004;28;20484;-71
2022/06/05 06:58:00;;;;;;;5.20;3.93;;;18.70;99.90;;;;;;5069669;28;20470;-71
2022/06/05 07:00:28;;;;;;;5.27;4.77;;;18.70;99.90;;;;;;5086800;28;20468;-71
2022/06/05 07:02:55;;;;;;;5.63;5.13;;;18.80;99.90;;;;;;5085031;28;20478;-70
2022/06/05 07:05:22;;;;;;;5.73;5.13;;;18.90;99.90;;;;;;5083838;28;20605;-71
2022/06/05 07:07:49;;;;;;;5.87;5.20;;;19.00;99.90;;;;;;5076221;28;20488;-73
2022/06/05 07:10:15;;;;;;;6.37;5.17;;;19.10;99.90;;;;;;5091591;28;20551;-73
2022/06/05 07:12:42;;;;;;;6.37;5.73;;;19.20;99.90;;;;;;5087503;28;21004;-72
2022/06/05 07:15:11;;;;;;;6.17;5.20;;;19.20;99.90;;;;;;5085635;28;20484;-72
2022/06/05 07:17:38;;;;;;;7.90;5.80;;;19.10;99.90;;;;;;5084889;28;20951;-73
2022/06/05 07:20:06;;;;;;;6.33;5.37;;;19.10;99.90;;;;;;5087659;28;22509;-72
2022/06/05 07:22:32;;;;;;;6.63;5.33;;;19.10;99.90;;;;;;5086963;28;20477;-72
2022/06/05 07:24:59;;;;;;;6.20;5.20;;;19.30;99.90;;;;;;5083215;28;20469;-71
2022/06/05 07:27:27;;;;;;;8.27;4.93;;;19.40;99.90;;;;;;5086935;28;20545;-72
2022/06/05 07:29:54;;;;;;;5.60;5.17;;;19.40;99.90;;;;;;5080079;28;20494;-71
2022/06/05 07:32:23;;;;;;;9.37;5.67;;;19.50;99.90;;;;;;5083831;28;20484;-72
2022/06/05 07:34:50;;;;;;;12.27;5.63;;;19.50;99.90;;;;;;5080518;28;20469;-71
2022/06/05 07:37:17;;;;;;;6.90;6.20;;;19.60;99.90;;;;;;5085062;28;20511;-73
2022/06/05 07:39:44;;;;;;;8.53;6.43;;;19.70;99.90;;;;;;5089278;28;20462;-72
2022/06/05 07:42:12;;;;;;;8.33;5.90;;;19.80;99.90;;;;;;5084161;28;20505;-72
2022/06/05 07:44:39;;;;;;;8.57;6.67;;;20.00;99.90;;;;;;5082693;28;20461;-72
2022/06/05 07:47:07;;;;;;;10.40;6.80;;;20.30;99.90;;;;;;5083660;28;20462;-72
2022/06/05 07:49:38;;;;;;;6.20;5.60;;;20.50;99.90;;;;;;5085795;28;22445;-71
2022/06/05 07:54:49;;;;;;;7.73;5.63;;;20.60;99.90;;;;;;5085414;28;20441;-75
2022/06/05 07:57:18;;;;;;;8.40;6.53;;;20.60;99.90;;;;;;5076838;28;20489;-73
2022/06/05 07:59:47;;;;;;;7.47;6.77;;;20.70;99.90;;;;;;5073536;28;21165;-72
2022/06/05 08:02:16;;;;;;;6.70;5.50;;;20.70;99.90;;;;;;5077914;28;20471;-71
2022/06/05 08:04:45;;;;;;;6.53;5.70;;;20.70;99.90;;;;;;5083546;28;20585;-73
2022/06/05 08:07:15;;;;;;;5.37;4.87;;;20.60;99.90;;;;;;5080065;28;20491;-72
2022/06/05 08:09:43;;;;;;;6.63;6.03;;;20.60;99.90;;;;;;5080893;28;20462;-72
2022/06/05 08:12:11;;;;;;;7.73;6.83;;;20.70;99.90;;;;;;5083565;28;20488;-73
2022/06/05 08:14:38;;;;;;;7.50;5.80;;;20.80;99.90;;;;;;5080238;28;20841;-72
2022/06/05 08:17:07;;;;;;;9.53;6.53;;;21.10;99.90;;;;;;5081720;28;20465;-72
2022/06/05 08:19:34;;;;;;;5.43;4.17;;;21.20;99.90;;;;;;5084413;28;20446;-71
2022/06/05 08:22:03;;;;;;;6.60;5.97;;;21.40;99.90;;;;;;5076052;28;20614;-71
2022/06/05 08:24:29;;;;;;;4.73;4.33;;;21.40;99.90;;;;;;5060151;28;20796;-72
2022/06/05 08:26:56;;;;;;;5.77;5.20;;;21.50;99.90;;;;;;5060614;28;20462;-72
2022/06/05 08:29:25;;;;;;;4.83;4.33;;;21.50;99.90;;;;;;5075191;28;20503;-72
2022/06/05 08:31:53;;;;;;;5.20;4.70;;;21.70;99.90;;;;;;5068156;28;20473;-71
2022/06/05 08:34:20;;;;;;;7.17;5.90;;;21.80;99.90;;;;;;5062055;28;20454;-75
2022/06/05 08:36:47;;;;;;;5.60;4.50;;;22.40;99.90;;;;;;5069628;28;20462;-71
2022/06/05 08:42:12;;;;;;;5.33;4.83;;;23.00;99.90;;;;;;5069403;28;20621;-73
2022/06/05 08:44:41;;;;;;;5.33;4.83;;;23.50;99.90;;;;;;5068435;28;20466;-73
2022/06/05 08:47:18;;;;;;;5.07;4.57;;;24.30;99.90;;;;;;5069433;28;20549;-72
2022/06/05 08:49:47;;;;;;;3.27;2.90;;;25.10;99.90;;;;;;5079348;28;20485;-71
2022/06/05 08:52:20;;;;;;;5.30;4.80;;;25.00;99.90;;;;;;5076070;28;21025;-72
2022/06/05 08:54:55;;;;;;;5.27;4.30;;;24.50;99.90;;;;;;5073768;28;20545;-73
2022/06/05 08:57:27;;;;;;;3.80;3.03;;;24.20;99.90;;;;;;5078945;28;20465;-72
2022/06/05 09:00:01;;;;;;;4.97;4.47;;;24.00;99.90;;;;;;5073935;28;20446;-72
2022/06/05 09:02:39;;;;;;;7.73;4.47;;;24.00;99.90;;;;;;5075025;28;20481;-73
2022/06/05 09:05:12;;;;;;;4.47;4.07;;;23.90;99.90;;;;;;5066726;28;20469;-72
2022/06/05 09:07:44;;;;;;;7.87;5.00;;;23.90;99.90;;;;;;5066964;28;20558;-73
2022/06/05 09:10:17;;;;;;;3.20;2.90;;;23.90;99.90;;;;;;5066871;28;20486;-71
2022/06/05 09:12:51;;;;;;;3.33;2.83;;;23.80;99.90;;;;;;5072603;28;20592;-71
2022/06/05 09:15:25;;;;;;;6.07;5.53;;;23.90;99.90;;;;;;5074623;28;20967;-71
2022/06/05 09:17:56;;;;;;;5.33;4.83;;;23.90;99.90;;;;;;5070287;28;20458;-73
2022/06/05 09:20:43;;;;;;;7.60;5.40;;;23.70;99.90;;;;;;5062577;28;20458;-72
2022/06/05 09:23:20;;;;;;;6.63;6.03;;;23.80;99.90;;;;;;5069082;28;20482;-73
2022/06/05 09:25:54;;;;;;;6.13;5.53;;;23.60;99.90;;;;;;5068508;28;20981;-72
2022/06/05 09:28:51;;;;;;;5.87;5.20;;;24.00;99.90;;;;;;5077583;28;20489;-72
2022/06/05 09:31:39;;;;;;;5.00;4.60;;;23.80;99.90;;;;;;5077759;28;20978;-72
2022/06/05 09:34:12;;;;;;;4.67;4.20;;;23.70;99.90;;;;;;5081390;28;20466;-71
2022/06/05 09:36:42;;;;;;;5.73;4.50;;;23.70;99.90;;;;;;5075323;28;20466;-72
2022/06/05 09:39:24;;;;;;;4.37;3.97;;;23.80;99.90;;;;;;5069450;28;20488;-71
2022/06/05 09:44:44;;;;;;;5.03;4.50;;;23.60;99.90;;;;;;5039550;28;20723;-72
2022/06/05 09:47:18;;;;;;;7.10;5.40;;;23.50;99.90;;;;;;5051153;28;20466;-71
2022/06/05 09:49:49;;;;;;;7.40;4.70;;;23.60;99.90;;;;;;5058146;28;20612;-73
2022/06/05 09:52:21;;;;;;;4.03;3.63;;;23.60;99.90;;;;;;5049552;28;20486;-71
2022/06/05 09:54:55;;;;;;;5.40;4.87;;;23.40;99.90;;;;;;5032459;28;22337;-72
2022/06/05 10:00:33;;;;;;;12.87;4.17;;;23.20;99.90;;;;;;5027570;28;20508;-72
2022/06/05 10:03:02;;;;;;;5.83;4.93;;;23.20;99.90;;;;;;5019572;28;20479;-70
2022/06/05 10:05:31;;;;;;;12.93;6.10;;;23.10;99.90;;;;;;5028959;28;20520;-70
2022/06/05 10:08:06;;;;;;;5.43;4.93;;;23.10;99.90;;;;;;5030345;28;20467;-72
2022/06/05 10:10:37;;;;;;;15.53;6.70;;;23.00;99.90;;;;;;5029908;28;21062;-72
2022/06/05 10:13:12;;;;;;;9.00;5.20;;;23.10;99.90;;;;;;5033304;28;20904;-71
2022/06/05 10:15:48;;;;;;;5.13;4.73;;;23.30;99.90;;;;;;5039363;28;20531;-71
2022/06/05 10:18:21;;;;;;;5.97;5.47;;;23.30;99.90;;;;;;5030643;28;20735;-71
2022/06/05 10:20:57;;;;;;;4.93;4.40;;;23.40;99.90;;;;;;5033245;28;20462;-71
2022/06/05 10:23:44;;;;;;;4.83;3.53;;;23.30;99.90;;;;;;5037843;28;20479;-73
2022/06/05 10:26:28;;;;;;;5.37;4.83;;;23.30;99.90;;;;;;5036958;28;20495;-71
2022/06/05 10:29:10;;;;;;;6.17;5.27;;;23.20;99.90;;;;;;5029224;28;20480;-72
2022/06/05 10:31:44;;;;;;;6.80;6.20;;;23.20;99.90;;;;;;5042599;28;20651;-73
2022/06/05 10:34:19;;;;;;;5.40;4.93;;;23.30;99.90;;;;;;5027980;28;20448;-71
2022/06/05 10:36:54;;;;;;;4.53;4.13;;;23.40;99.90;;;;;;5034543;28;20463;-70
2022/06/05 10:39:28;;;;;;;4.83;4.27;;;23.70;99.90;;;;;;5023894;28;20953;-70
2022/06/05 10:42:26;;;;;;;4.30;3.90;;;23.80;99.90;;;;;;5031294;28;20456;-71
2022/06/05 10:45:16;;;;;;;4.57;3.87;;;23.80;99.90;;;;;;5029472;28;21393;-70
2022/06/05 10:47:54;;;;;;;3.77;3.47;;;23.70;99.90;;;;;;5031238;28;20460;-72
2022/06/05 10:50:25;;;;;;;4.73;4.20;;;23.60;99.90;;;;;;5037732;28;20481;-70
2022/06/05 10:52:59;;;;;;;4.87;3.97;;;23.60;99.90;;;;;;5040722;28;20945;-71
2022/06/05 10:55:35;;;;;;;5.60;4.70;;;23.80;99.90;;;;;;5022030;28;20472;-72
2022/06/05 10:58:16;;;;;;;7.03;4.63;;;23.70;99.90;;;;;;5026231;28;20456;-72
2022/06/05 11:00:59;;;;;;;5.20;4.70;;;23.80;99.90;;;;;;5026072;28;20456;-71
2022/06/05 11:03:37;;;;;;;5.27;4.87;;;23.80;99.90;;;;;;5024813;28;21120;-72
2022/06/05 11:06:25;;;;;;;5.63;4.80;;;23.30;99.90;;;;;;5034206;28;20461;-71
2022/06/05 11:09:08;;;;;;;5.07;4.63;;;22.60;99.90;;;;;;5039129;28;20487;-70
2022/06/05 11:14:28;;;;;;;5.63;5.10;;;22.30;99.90;;;;;;5036157;28;20451;-71
2022/06/05 11:17:00;;;;;;;5.87;5.10;;;22.20;99.90;;;;;;5031233;28;20468;-70
2022/06/05 11:19:36;;;;;;;7.30;6.60;;;22.20;99.90;;;;;;5038655;28;20464;-70
2022/06/05 11:22:10;;;;;;;6.00;5.40;;;22.10;99.90;;;;;;5036714;28;20514;-71
2022/06/05 11:24:46;;;;;;;5.30;4.30;;;22.10;99.90;;;;;;5038874;28;20464;-70
2022/06/05 11:27:26;;;;;;;5.87;5.30;;;22.00;99.90;;;;;;5039029;28;20550;-71
2022/06/05 11:30:02;;;;;;;6.83;6.20;;;21.80;99.90;;;;;;5032900;28;20562;-70
2022/06/05 11:32:42;;;;;;;6.50;5.50;;;21.30;99.90;;;;;;5023932;28;20483;-70
2022/06/05 11:35:20;;;;;;;8.03;5.90;;;21.00;99.90;;;;;;5037645;28;20567;-70
2022/06/05 11:37:56;;;;;;;6.50;5.73;;;21.10;99.90;;;;;;5028018;28;20455;-70
2022/06/05 11:40:41;;;;;;;7.03;6.33;;;21.30;99.90;;;;;;5029400;28;20448;-71
2022/06/05 11:43:27;;;;;;;9.40;6.07;;;21.60;99.90;;;;;;5036106;28;20498;-71
2022/06/05 11:46:02;;;;;;;7.40;6.80;;;21.50;99.90;;;;;;5015806;28;21518;-73
2022/06/05 11:48:35;;;;;;;5.50;5.00;;;21.60;99.90;;;;;;5040894;28;20465;-72
2022/06/05 11:51:10;;;;;;;9.57;6.90;;;21.50;99.90;;;;;;5037523;28;20478;-71
2022/06/05 11:53:45;;;;;;;7.70;7.00;;;21.30;99.90;;;;;;5035296;28;20494;-70
2022/06/05 11:56:33;;;;;;;7.77;6.57;;;21.50;99.90;;;;;;5026144;28;20460;-72
2022/06/05 11:59:10;;;;;;;5.60;5.07;;;21.60;99.90;;;;;;5021336;28;20456;-71
2022/06/05 12:01:44;;;;;;;6.60;5.63;;;21.60;99.90;;;;;;5030573;28;20854;-72
2022/06/05 12:04:17;;;;;;;6.70;5.63;;;21.50;99.90;;;;;;5031727;28;20557;-71
2022/06/05 12:06:51;;;;;;;6.97;6.27;;;21.50;99.90;;;;;;5030564;28;20845;-70
2022/06/05 12:09:21;;;;;;;5.80;5.20;;;21.50;99.90;;;;;;5018674;28;20477;-71
2022/06/05 12:11:54;;;;;;;7.30;6.60;;;21.60;99.90;;;;;;5029542;28;20641;-71
2022/06/05 12:14:26;;;;;;;5.83;5.23;;;21.50;99.90;;;;;;5037498;28;20893;-73
2022/06/05 12:17:04;;;;;;;6.83;5.23;;;21.30;99.90;;;;;;5030011;28;20472;-71
2022/06/05 12:19:48;;;;;;;5.90;5.40;;;21.10;99.90;;;;;;5026466;28;20472;-69
2022/06/05 12:22:24;;;;;;;6.20;4.80;;;20.90;99.90;;;;;;5035245;28;20480;-70
2022/06/05 12:24:57;;;;;;;6.23;5.63;;;20.90;99.90;;;;;;5039280;28;20463;-69
2022/06/05 12:27:25;;;;;;;6.20;5.23;;;20.80;99.90;;;;;;5032483;28;20508;-69
2022/06/05 12:29:59;;;;;;;4.43;3.67;;;20.90;99.90;;;;;;5028659;28;21019;-71
2022/06/05 12:32:36;;;;;;;5.60;5.10;;;20.80;99.90;;;;;;5024399;28;20567;-71
2022/06/05 12:35:07;;;;;;;5.43;4.93;;;20.90;99.90;;;;;;5034057;28;20467;-70
2022/06/05 12:37:40;;;;;;;6.63;6.03;;;21.00;99.90;;;;;;5029337;28;20995;-70
2022/06/05 12:40:16;;;;;;;5.17;4.63;;;21.20;99.90;;;;;;5040680;28;20522;-69
2022/06/05 12:42:51;;;;;;;5.30;4.80;;;21.30;99.90;;;;;;5033978;28;21206;-70
2022/06/05 12:45:31;;;;;;;6.17;5.43;;;21.10;99.90;;;;;;5032855;28;20534;-70
2022/06/05 12:48:10;;;;;;;6.80;5.20;;;21.20;99.90;;;;;;5033089;28;20539;-70
2022/06/05 12:50:45;;;;;;;5.80;3.07;;;21.40;99.90;;;;;;5030053;28;20492;-72
2022/06/05 12:53:30;;;;;;;6.23;5.07;;;21.20;99.90;;;;;;5030860;28;20479;-70
2022/06/05 12:56:07;;;;;;;5.33;4.43;;;21.00;99.90;;;;;;5033134;28;20552;-70
2022/06/05 12:58:46;;;;;;;5.60;4.90;;;21.20;99.90;;;;;;5035474;28;20833;-71
2022/06/05 13:01:19;;;;;;;6.23;4.60;;;21.20;99.90;;;;;;5031797;28;20463;-72
2022/06/05 13:03:52;;;;;;;5.63;5.00;;;21.20;99.90;;;;;;5035196;28;20475;-70
2022/06/05 13:06:30;;;;;;;7.20;5.87;;;21.30;99.90;;;;;;5033483;28;20985;-70
2022/06/05 13:09:03;;;;;;;10.97;7.13;;;21.30;99.90;;;;;;5027384;28;20463;-72
2022/06/05 13:11:35;;;;;;;7.20;6.50;;;21.10;99.90;;;;;;5029000;28;20452;-70
2022/06/05 13:14:10;;;;;;;14.03;6.70;;;21.10;99.90;;;;;;5028869;28;20857;-72
2022/06/05 13:16:43;;;;;;;6.23;5.63;;;21.10;99.90;;;;;;5030474;28;20913;-69
2022/06/05 13:19:27;;;;;;;7.07;6.47;;;21.10;99.90;;;;;;5034356;28;20488;-69
2022/06/05 13:22:04;;;;;;;7.37;6.10;;;21.00;99.90;;;;;;5032173;28;20474;-69
2022/06/05 13:24:40;;;;;;;6.33;5.07;;;21.00;99.90;;;;;;5031807;28;20447;-70
2022/06/05 13:27:19;;;;;;;7.10;6.40;;;20.80;99.90;;;;;;5037080;28;20476;-69
2022/06/05 13:29:55;;;;;;;7.97;6.93;;;20.80;99.90;;;;;;5037100;28;20487;-70